aviador You're here:

YABA Decoded Metar

in
Report Time2017-03-23 23:30:00
UTC Time2017-03-24 00:05:47
Flight Rules mvfr MVFR
Wind210° at 09 kt
W.Decomp.*RWY 23: 8.5 kt HW 3.1 kt LCW
RWY 14: 3.1 kt HW 8.5 kt RCW
W.Rank210° ranks 20
Current wind is below 210° avg. (9.9)
Visibility7000 m
Phenomena:Light Shower Rain
Clouds:Few 006 Hf
Broken 015 Hf
Broken 030 Hf
Expected CloudBase > 400 ft AGL from Temp-Dew spread
Ceiling1,500 ft
Temp17°C
Dew Point16°C (94% RH)
AAT15.8°C
QNH1015 hPa
Raw Report
SPECI YABA 232330Z 21009KT 7000 -SHRA FEW006 BKN015 BKN030 17/16 Q1015=

Extra information for YABA:More info

Social comments